Nearby METAR Reports

 

KMTN - Baltimore/Martin, Maryland, USA
Distance from station: SSE 8mi, 13km
Updated: Thu, 11-Feb-2016 7:55pm EST
Clear
Clear
 Wind from W
Wind: W 14 mph , 22 km/h, Gust: 20 mph , 31 km/h
Temperature: 25°F , -4°C
Wind Chill: 13°F , -11°C
Dew Point: 3°F , -16°C
Humidity: 39%
Barometer: 30.28 inHg , 1025.4 hPa
Clouds: Clear
Visibility: 10 miles , 16 km
2016/02/12 00:55 KMTN 120055Z 26012G17KT 10SM SKC M04/M16 A3028
KDMH - Baltimore/Dwntwn, Maryland, USA
Distance from station: SW 12mi, 19km
Updated: Thu, 11-Feb-2016 7:54pm EST

 
Temperature: 23°F , -5°C
Dew Point: -0°F , -18°C
Humidity: 36%
Barometer: 30.31 inHg , 1026.4 hPa
2016/02/12 00:54 KDMH 120054Z AUTO M05/M18 A3031 RMK AO1 SLP262 T10501178
 
KBWI - Balto/Wash Intl, Maryland, USA
Distance from station: SSW 20mi, 33km
Updated: Thu, 11-Feb-2016 7:54pm EST
Few Clouds
Few Clouds
 Wind from WNW
Wind: WNW 13 mph , 20 km/h
Temperature: 21°F , -6°C
Wind Chill: 8°F , -13°C
Dew Point: -0°F , -18°C
Humidity: 38%
Barometer: 30.27 inHg , 1025.1 hPa
Clouds: Few Clouds
Visibility: 10 miles , 16 km
Cloud details: Few Clouds 6000 ft
2016/02/12 00:54 KBWI 120054Z 29011KT 10SM FEW060 M06/M18 A3027 RMK AO2 SLP251 T10561178
KDMW - Carroll Cnty, Maryland, USA
Distance from station: WNW 30mi, 48km
Updated: Thu, 11-Feb-2016 8:00pm EST
Partly cloudy
Partly cloudy
 Wind from W
Wind: W 9 mph , 15 km/h, Gust: 17 mph , 28 km/h
Temperature: 18°F , -8°C
Wind Chill: 7°F , -14°C
Dew Point: 7°F , -14°C
Humidity: 62%
Barometer: 30.21 inHg , 1023 hPa
Clouds: Partly cloudy
Visibility: 10 miles , 16 km
Cloud details: Partly cloudy 9000 ft
2016/02/12 01:00 KDMW 120100Z AUTO 27008G15KT 10SM SCT090 M08/M14 A3021 RMK AO2
 
KNAK - Annapolis/Naval, Maryland, USA
Distance from station: S 30mi, 48km
Updated: Thu, 11-Feb-2016 7:54pm EST
Clear
Clear
 Wind from NW
Wind: NW 14 mph , 22 km/h, Gust: 21 mph , 33 km/h
Temperature: 25°F , -4°C
Wind Chill: 13°F , -11°C
Dew Point: 3°F , -16°C
Humidity: 39%
Barometer: 30.27 inHg , 1025.1 hPa
Clouds: Clear
Visibility: 10 miles , 16 km
2016/02/12 00:54 KNAK 120054Z AUTO 31012G18KT 10SM CLR M04/M16 A3027 RMK AO2 SLP253 T10441156
KW29 - Stevensville, Maryland, USA
Distance from station: SSE 31mi, 50km
Updated: Thu, 11-Feb-2016 7:59pm EST

 Wind from WNW
Wind: WNW 16 mph , 26 km/h, Gust: 24 mph , 39 km/h
Temperature: 27°F , -3°C
Wind Chill: 15°F , -9°C
Dew Point: 3°F , -16°C
Humidity: 36%
Barometer: 30.28 inHg , 1025.4 hPa
Visibility: 10 miles , 16 km
2016/02/12 00:59 KW29 120059Z AUTO 29014G21KT 10SM M03/M16 A3028 RMK AO1
 
KCGS - College Park, Maryland, USA
Distance from station: SW 38mi, 61km
Updated: Thu, 11-Feb-2016 7:55pm EST
Clear
Clear
 Wind from WNW
Wind: WNW 9 mph , 15 km/h, Gust: 17 mph , 28 km/h
Temperature: 25°F , -4°C
Wind Chill: 16°F , -9°C
Dew Point: 1°F , -17°C
Humidity: 36%
Barometer: 30.28 inHg , 1025.4 hPa
Clouds: Clear
Visibility: 10 miles , 16 km
2016/02/12 00:55 KCGS 120055Z AUTO 29008G15KT 10SM CLR M04/M17 A3028 RMK AO1
KGAI - Gaithersburg, Maryland, USA
Distance from station: WSW 40mi, 65km
Updated: Thu, 11-Feb-2016 7:55pm EST
Clear
Clear
 Wind from WNW
Wind: WNW 8 mph , 13 km/h, Gust: 18 mph , 30 km/h
Temperature: 19°F , -7°C
Wind Chill: 9°F , -13°C
Dew Point: 1°F , -17°C
Humidity: 45%
Barometer: 30.29 inHg , 1025.7 hPa
Clouds: Clear
Visibility: 10 miles , 16 km
2016/02/12 00:55 KGAI 120055Z AUTO 30007G16KT 250V320 10SM CLR M07/M17 A3029 RMK AO1
 
KTHV - York, Pennsylvania, USA
Distance from station: NNW 40mi, 65km
Updated: Thu, 11-Feb-2016 7:53pm EST
Partly cloudy
Partly cloudy
 Wind from W
Wind: W 6 mph , 9 km/h
Temperature: 16°F , -9°C
Wind Chill: 7°F , -14°C
Dew Point: -0°F , -18°C
Humidity: 48%
Barometer: 30.22 inHg , 1023.4 hPa
Clouds: Partly cloudy
Visibility: 10 miles , 16 km
Cloud details: Partly cloudy 6000 ft
2016/02/12 00:53 KTHV 120053Z AUTO 27005KT 10SM SCT060 M09/M18 A3022 RMK AO2 SLP243 T10891178
KFDK - Frederick, Maryland, USA
Distance from station: W 47mi, 75km
Updated: Thu, 11-Feb-2016 7:55pm EST
Clear
Clear
 Wind from W
Wind: W 14 mph , 22 km/h, Gust: 24 mph , 39 km/h
Temperature: 21°F , -6°C
Wind Chill: 8°F , -13°C
Dew Point: 5°F , -15°C
Humidity: 49%
Barometer: 30.30 inHg , 1026.1 hPa
Clouds: Clear
Visibility: 10 miles , 16 km
2016/02/12 00:55 KFDK 120055Z AUTO 28012G21KT 10SM CLR M06/M15 A3030 RMK AO2
 
KESN - Easton/Newnam, Maryland, USA
Distance from station: SSE 48mi, 78km
Updated: Thu, 11-Feb-2016 7:45pm EST
Clear
Clear
 Wind from NW
Wind: NW 13 mph , 20 km/h, Gust: 23 mph , 37 km/h
Temperature: 25°F , -4°C
Wind Chill: 13°F , -11°C
Dew Point: 3°F , -16°C
Humidity: 39%
Barometer: 30.29 inHg , 1025.7 hPa
Clouds: Clear
Visibility: 10 miles , 16 km
2016/02/12 00:45 KESN 120045Z 31011G20KT 10SM SKC M04/M16 A3029
KDCA - Washington/Natl, Washington D.c., USA
Distance from station: SW 49mi, 79km
Updated: Thu, 11-Feb-2016 7:52pm EST
Clear
Clear
 Wind from WNW
Wind: WNW 10 mph , 17 km/h, Gust: 20 mph , 31 km/h
Temperature: 25°F , -4°C
Wind Chill: 15°F , -9°C
Dew Point: -0°F , -18°C
Humidity: 33%
Barometer: 30.30 inHg , 1026.1 hPa
Clouds: Clear
Visibility: 10 miles , 16 km
2016/02/12 00:52 KDCA 120052Z 30009G17KT 10SM CLR M04/M18 A3030 RMK AO2 SLP258 T10441178
 
KLNS - Lancaster, Pennsylvania, USA
Distance from station: N 49mi, 79km
Updated: Thu, 11-Feb-2016 7:53pm EST
Clear
Clear
 Wind from WNW
Wind: WNW 12 mph , 19 km/h
Temperature: 18°F , -8°C
Wind Chill: 5°F , -15°C
Dew Point: 1°F , -17°C
Humidity: 49%
Barometer: 30.19 inHg , 1022.4 hPa
Clouds: Clear
Visibility: 10 miles , 16 km
2016/02/12 00:53 KLNS 120053Z 29010KT 10SM CLR M08/M17 A3019 RMK AO2 SLP230 T10781172
KILG - Wilmington, Delaware, USA
Distance from station: ENE 50mi, 81km
Updated: Thu, 11-Feb-2016 7:51pm EST
Clear
Clear
 Wind from W
Wind: W 13 mph , 20 km/h
Temperature: 21°F , -6°C
Wind Chill: 8°F , -13°C
Dew Point: 3°F , -16°C
Humidity: 45%
Barometer: 30.22 inHg , 1023.4 hPa
Clouds: Clear
Visibility: 10 miles , 16 km
2016/02/12 00:51 KILG 120051Z AUTO 27011KT 10SM CLR M06/M16 A3022 RMK AO2 SLP233 T10611161